Time;durP1;ratioP1;P1;durP2;ratioP2;P2;SDS_P1;SDS_P2;PMS_P1;PMS_P2;Temp;Humidity;BMP_temperature;BMP_pressure;BME280_temperature;BME280_humidity;BME280_pressure;Samples;Min_cycle;Max_cycle;Signal;HPM_P1;HPM_P2
2023/06/17 00:00:29;;;;;;;0.50;0.20;;;;;;;16.87;69.90;100189.88;5031045;28;20470;-51
2023/06/17 00:02:56;;;;;;;0.50;0.20;;;;;;;17.09;69.36;100193.06;5034276;28;20491;-51
2023/06/17 00:05:24;;;;;;;0.40;0.20;;;;;;;16.86;69.81;100188.13;5033285;28;20984;-52
2023/06/17 00:07:52;;;;;;;0.40;0.20;;;;;;;16.55;70.66;100196.97;5033212;28;20468;-52
2023/06/17 00:10:18;;;;;;;0.50;0.20;;;;;;;16.45;71.34;100193.06;5033872;28;20498;-51
2023/06/17 00:12:46;;;;;;;0.40;0.20;;;;;;;16.52;71.29;100181.03;5033593;28;20467;-52
2023/06/17 00:15:12;;;;;;;0.40;0.20;;;;;;;16.55;71.26;100183.53;5033438;28;20496;-52
2023/06/17 00:17:44;;;;;;;0.50;0.20;;;;;;;16.56;70.95;100180.78;5033236;28;20468;-52
2023/06/17 00:20:12;;;;;;;0.50;0.20;;;;;;;16.36;72.21;100183.69;5033444;28;20518;-51
2023/06/17 00:22:39;;;;;;;0.50;0.20;;;;;;;16.61;71.63;100190.41;5032953;28;20546;-52
2023/06/17 00:25:06;;;;;;;0.50;0.20;;;;;;;16.47;72.03;100189.34;5033129;28;20467;-52
2023/06/17 00:27:33;;;;;;;0.50;0.20;;;;;;;16.03;74.05;100188.16;5033162;28;20498;-52
2023/06/17 00:30:00;;;;;;;0.50;0.20;;;;;;;15.99;75.26;100190.13;5033308;28;20526;-52
2023/06/17 00:32:27;;;;;;;0.50;0.20;;;;;;;15.89;75.88;100186.19;5033108;28;20472;-52
2023/06/17 00:34:54;;;;;;;2.40;0.97;;;;;;;15.80;76.79;100184.88;5033310;28;20460;-52
2023/06/17 00:37:21;;;;;;;0.50;0.20;;;;;;;15.99;76.27;100184.78;5032985;28;20467;-52
2023/06/17 00:39:48;;;;;;;0.50;0.20;;;;;;;15.87;76.61;100178.25;5032928;28;20498;-52
2023/06/17 00:42:15;;;;;;;0.50;0.20;;;;;;;16.27;75.04;100181.50;5032814;28;20479;-52
2023/06/17 00:44:41;;;;;;;0.40;0.20;;;;;;;15.69;76.96;100182.75;5032971;28;20826;-51
2023/06/17 00:47:10;;;;;;;0.40;0.20;;;;;;;15.18;78.25;100180.84;5032735;28;20487;-51
2023/06/17 00:49:39;;;;;;;0.50;0.20;;;;;;;14.99;80.03;100180.88;5032364;28;20810;-51
2023/06/17 00:52:08;;;;;;;0.50;0.20;;;;;;;15.12;79.57;100178.47;5030572;28;20878;-51
2023/06/17 00:54:55;;;;;;;0.40;0.20;;;;;;;15.11;78.90;100177.63;5033332;28;20459;-51
2023/06/17 00:57:23;;;;;;;0.50;0.20;;;;;;;15.08;78.56;100180.44;5038415;28;20504;-50
2023/06/17 00:59:50;;;;;;;0.40;0.20;;;;;;;14.58;80.30;100182.00;5030942;28;20554;-51
2023/06/17 01:02:17;;;;;;;0.43;0.20;;;;;;;14.69;80.56;100183.22;5025832;28;20546;-50
2023/06/17 01:04:46;;;;;;;0.40;0.20;;;;;;;14.77;78.99;100181.03;5025213;28;20460;-50
2023/06/17 01:07:42;;;;;;;0.50;0.20;;;;;;;14.98;78.07;100179.16;5029107;28;20546;-50
2023/06/17 01:10:27;;;;;;;0.43;0.20;;;;;;;14.88;78.44;100180.53;5031615;28;20476;-50
2023/06/17 01:12:57;;;;;;;0.50;0.20;;;;;;;15.41;76.28;100175.22;5032020;28;20467;-51
2023/06/17 01:15:23;;;;;;;0.40;0.20;;;;;;;15.48;76.03;100175.75;5032032;28;20479;-51
2023/06/17 01:17:54;;;;;;;0.40;0.20;;;;;;;15.46;76.05;100179.47;5031979;28;20476;-51
2023/06/17 01:20:22;;;;;;;0.40;0.20;;;;;;;15.30;76.57;100174.00;5031961;28;20460;-50
2023/06/17 01:22:54;;;;;;;0.40;0.20;;;;;;;15.17;77.12;100178.25;5031858;28;20883;-50
2023/06/17 01:25:29;;;;;;;0.40;0.20;;;;;;;14.91;77.67;100176.81;5031798;28;20486;-50
2023/06/17 01:27:59;;;;;;;0.40;0.20;;;;;;;15.04;77.73;100177.97;5031788;28;20471;-50
2023/06/17 01:30:29;;;;;;;0.43;0.20;;;;;;;14.97;77.81;100172.06;5031749;28;20553;-51
2023/06/17 01:33:00;;;;;;;0.40;0.20;;;;;;;14.58;79.02;100166.81;5031885;28;20468;-50
2023/06/17 01:35:31;;;;;;;0.40;0.20;;;;;;;14.64;78.87;100173.66;5031792;28;20511;-50
2023/06/17 01:38:17;;;;;;;0.50;0.20;;;;;;;14.03;80.87;100174.66;5032164;28;20467;-50
2023/06/17 01:40:45;;;;;;;0.40;0.20;;;;;;;14.51;79.76;100168.88;5040265;28;20479;-50
2023/06/17 01:43:16;;;;;;;0.50;0.20;;;;;;;14.64;79.22;100166.50;5031559;28;20471;-50
2023/06/17 01:45:43;;;;;;;0.40;0.20;;;;;;;14.12;80.78;100176.91;5031510;28;20507;-51
2023/06/17 01:48:10;;;;;;;0.40;0.20;;;;;;;14.46;80.02;100173.59;5031673;28;20467;-50
2023/06/17 01:50:36;;;;;;;0.40;0.20;;;;;;;14.56;79.22;100178.53;5043266;28;20491;-50
2023/06/17 01:53:03;;;;;;;0.40;0.20;;;;;;;14.36;79.96;100177.59;5031763;28;20474;-50
2023/06/17 01:55:29;;;;;;;0.40;0.20;;;;;;;14.11;81.30;100180.50;5031856;28;20488;-50
2023/06/17 01:57:56;;;;;;;0.40;0.20;;;;;;;14.28;81.15;100176.22;5030932;28;20464;-51
2023/06/17 02:00:22;;;;;;;0.40;0.20;;;;;;;14.18;80.80;100176.63;5034335;28;20462;-50
2023/06/17 02:02:49;;;;;;;0.40;0.20;;;;;;;14.18;80.88;100178.44;5035596;28;20471;-50
2023/06/17 02:05:16;;;;;;;0.40;0.20;;;;;;;14.15;81.21;100175.91;5030763;28;20494;-50
2023/06/17 02:07:42;;;;;;;0.40;0.20;;;;;;;14.04;81.13;100168.34;5044640;28;20471;-50
2023/06/17 02:10:09;;;;;;;0.40;0.20;;;;;;;13.97;81.47;100166.00;5031592;28;21031;-50
2023/06/17 02:12:36;;;;;;;0.40;0.20;;;;;;;13.99;81.19;100172.19;5031196;28;21045;-50
2023/06/17 02:15:02;;;;;;;0.40;0.20;;;;;;;14.09;80.96;100168.16;5029944;28;20468;-51
2023/06/17 02:17:29;;;;;;;0.40;0.20;;;;;;;14.17;80.28;100164.19;5036995;28;20466;-50
2023/06/17 02:19:55;;;;;;;0.40;0.20;;;;;;;14.16;80.92;100166.94;5031727;28;20543;-50
2023/06/17 02:22:22;;;;;;;0.50;0.40;;;;;;;14.08;80.52;100169.09;5031315;28;20464;-50
2023/06/17 02:24:48;;;;;;;0.40;0.20;;;;;;;14.02;80.79;100164.03;5041898;28;20970;-51
2023/06/17 02:27:16;;;;;;;0.40;0.20;;;;;;;14.07;80.46;100164.69;5037374;28;20471;-51
2023/06/17 02:29:44;;;;;;;0.40;0.20;;;;;;;13.44;84.38;100159.41;5034913;28;20468;-50
2023/06/17 02:32:11;;;;;;;0.40;0.20;;;;;;;13.25;85.05;100167.31;5046525;28;20618;-50
2023/06/17 02:34:37;;;;;;;0.40;0.20;;;;;;;13.85;82.76;100162.97;5034887;28;20467;-50
2023/06/17 02:37:04;;;;;;;0.50;0.20;;;;;;;13.78;83.35;100161.50;5026659;28;20534;-50
2023/06/17 02:39:31;;;;;;;0.40;0.20;;;;;;;13.71;83.22;100164.53;5034851;28;20475;-50
2023/06/17 02:41:57;;;;;;;0.40;0.20;;;;;;;13.83;82.33;100162.16;5034588;28;20498;-51
2023/06/17 02:44:23;;;;;;;0.40;0.20;;;;;;;13.54;84.34;100163.41;5034769;28;20452;-50
2023/06/17 02:46:50;;;;;;;0.40;0.20;;;;;;;13.43;84.72;100159.47;5034445;28;20487;-50
2023/06/17 02:49:17;;;;;;;0.40;0.20;;;;;;;13.41;84.62;100151.50;5034666;28;20469;-50
2023/06/17 02:51:43;;;;;;;0.40;0.20;;;;;;;13.34;84.95;100158.06;5025969;28;20487;-50
2023/06/17 02:54:11;;;;;;;0.40;0.20;;;;;;;13.26;85.41;100158.38;5034363;28;20579;-51
2023/06/17 02:56:37;;;;;;;0.40;0.20;;;;;;;13.12;86.88;100160.72;5035677;28;21058;-50
2023/06/17 02:59:04;;;;;;;0.40;0.20;;;;;;;13.47;84.85;100156.63;5034498;28;20506;-50
2023/06/17 03:01:31;;;;;;;0.40;0.20;;;;;;;13.25;85.34;100159.31;5034697;28;20474;-50
2023/06/17 03:04:01;;;;;;;0.40;0.20;;;;;;;13.34;85.13;100155.41;5034103;28;20459;-51
2023/06/17 03:06:33;;;;;;;0.40;0.20;;;;;;;13.31;84.81;100158.19;5034003;28;21039;-50
2023/06/17 03:09:01;;;;;;;0.40;0.20;;;;;;;13.14;86.16;100149.97;5032887;28;20459;-50
2023/06/17 03:11:28;;;;;;;0.40;0.20;;;;;;;13.45;84.42;100152.28;5030698;28;20514;-50
2023/06/17 03:13:55;;;;;;;0.40;0.20;;;;;;;13.12;85.15;100155.38;5041065;28;20463;-50
2023/06/17 03:16:24;;;;;;;0.40;0.20;;;;;;;13.02;86.42;100154.03;5033943;28;20520;-50
2023/06/17 03:18:51;;;;;;;0.40;0.20;;;;;;;12.89;87.24;100159.00;5028381;28;20499;-50
2023/06/17 03:21:17;;;;;;;0.40;0.20;;;;;;;13.20;86.67;100155.97;5033580;28;20463;-50
2023/06/17 03:23:45;;;;;;;0.40;0.20;;;;;;;13.08;85.86;100156.44;5034228;28;20516;-50
2023/06/17 03:26:12;;;;;;;0.40;0.20;;;;;;;13.16;85.79;100154.34;5038204;28;20497;-51
2023/06/17 03:28:38;;;;;;;0.40;0.20;;;;;;;13.48;84.24;100158.34;5039190;28;20506;-50
2023/06/17 03:31:06;;;;;;;0.40;0.20;;;;;;;13.35;84.54;100162.47;5033565;28;20502;-50
2023/06/17 03:33:33;;;;;;;0.40;0.20;;;;;;;13.31;84.93;100155.53;5033299;28;20555;-50
2023/06/17 03:35:59;;;;;;;0.40;0.20;;;;;;;13.36;85.44;100158.88;5033370;28;20483;-50
2023/06/17 03:38:25;;;;;;;0.40;0.20;;;;;;;13.09;86.94;100158.19;5033984;28;20503;-50
2023/06/17 03:40:52;;;;;;;0.40;0.20;;;;;;;13.18;87.75;100162.28;5033439;28;20506;-50
2023/06/17 03:43:18;;;;;;;0.40;0.20;;;;;;;13.23;87.57;100153.16;5035734;28;20468;-50
2023/06/17 03:45:45;;;;;;;0.40;0.20;;;;;;;13.39;86.92;100157.88;5033381;28;20487;-50
2023/06/17 03:48:11;;;;;;;0.40;0.20;;;;;;;13.29;87.44;100166.28;5033322;28;20467;-51
2023/06/17 03:50:38;;;;;;;0.40;0.20;;;;;;;13.08;87.40;100152.91;5037027;28;20885;-50
2023/06/17 03:53:04;;;;;;;0.40;0.20;;;;;;;13.15;88.02;100157.03;5033118;28;20459;-50
2023/06/17 03:55:32;;;;;;;0.40;0.20;;;;;;;13.08;88.10;100164.44;5033349;28;20498;-50
2023/06/17 03:57:59;;;;;;;0.40;0.20;;;;;;;13.35;87.72;100165.13;5033255;28;20495;-50
2023/06/17 04:00:26;;;;;;;0.40;0.20;;;;;;;13.47;87.18;100155.75;5033041;28;20532;-51
2023/06/17 04:02:53;;;;;;;0.40;0.20;;;;;;;13.53;87.28;100151.00;5032777;28;20472;-51
2023/06/17 04:05:20;;;;;;;0.40;0.20;;;;;;;13.73;86.06;100159.97;5025698;28;20549;-50
2023/06/17 04:07:48;;;;;;;0.40;0.20;;;;;;;13.26;86.87;100150.38;5033387;28;20468;-50
2023/06/17 04:10:15;;;;;;;0.40;0.20;;;;;;;13.45;87.21;100152.28;5032996;28;20468;-50
2023/06/17 04:12:42;;;;;;;0.40;0.20;;;;;;;13.55;87.21;100157.13;5033213;28;20491;-50
2023/06/17 04:15:09;;;;;;;0.40;0.20;;;;;;;13.67;87.45;100153.06;5032651;28;20498;-50
2023/06/17 04:17:39;;;;;;;0.40;0.20;;;;;;;13.76;86.82;100149.16;5037621;28;20469;-50
2023/06/17 04:20:12;;;;;;;0.40;0.20;;;;;;;14.08;85.69;100145.91;5032860;28;20494;-51
2023/06/17 04:22:40;;;;;;;0.40;0.20;;;;;;;14.11;85.29;100159.13;5032712;28;20956;-50
2023/06/17 04:25:08;;;;;;;0.40;0.20;;;;;;;14.20;85.69;100149.81;5032760;28;20956;-51
2023/06/17 04:27:36;;;;;;;0.40;0.20;;;;;;;14.45;84.79;100147.78;5031321;28;20502;-51
2023/06/17 04:30:03;;;;;;;0.40;0.20;;;;;;;14.81;83.90;100147.84;5032408;28;20467;-51
2023/06/17 04:32:30;;;;;;;0.40;0.20;;;;;;;15.45;81.25;100156.31;5032313;28;20574;-51
2023/06/17 04:34:56;;;;;;;0.40;0.20;;;;;;;16.27;78.38;100157.34;5032785;28;20486;-50
2023/06/17 04:37:23;;;;;;;0.40;0.20;;;;;;;16.53;76.45;100148.75;5032518;28;20463;-51
2023/06/17 04:39:52;;;;;;;0.40;0.20;;;;;;;17.15;73.44;100155.13;5032603;28;20526;-51
2023/06/17 04:42:19;;;;;;;0.40;0.20;;;;;;;17.53;71.93;100151.97;5032155;28;20533;-51
2023/06/17 04:44:48;;;;;;;0.40;0.20;;;;;;;17.84;70.38;100151.06;5032135;28;20514;-51
2023/06/17 04:47:16;;;;;;;0.40;0.20;;;;;;;17.93;69.51;100147.78;5031448;28;20467;-50
2023/06/17 04:49:44;;;;;;;0.40;0.20;;;;;;;18.33;67.96;100142.63;5032114;28;21083;-50
2023/06/17 04:52:11;;;;;;;0.50;0.20;;;;;;;18.33;67.79;100142.63;5033101;28;20491;-50
2023/06/17 04:54:38;;;;;;;0.47;0.20;;;;;;;18.81;65.14;100151.25;5031901;28;20847;-54
2023/06/17 04:57:05;;;;;;;0.50;0.20;;;;;;;18.70;66.21;100156.47;5013709;28;20511;-50
2023/06/17 04:59:32;;;;;;;0.43;0.20;;;;;;;18.86;64.92;100154.50;5032011;28;21018;-50
2023/06/17 05:01:58;;;;;;;0.50;0.20;;;;;;;19.08;64.83;100152.16;5032017;28;20451;-50
2023/06/17 05:04:25;;;;;;;0.50;0.20;;;;;;;19.01;64.79;100156.19;5032176;28;20471;-53
2023/06/17 05:06:51;;;;;;;0.50;0.20;;;;;;;19.19;63.91;100154.16;5032078;28;20484;-50
2023/06/17 05:09:18;;;;;;;2.00;1.90;;;;;;;19.04;63.81;100153.31;5026310;28;20515;-50
2023/06/17 05:11:45;;;;;;;0.40;0.20;;;;;;;18.76;64.67;100161.44;5030828;28;20491;-50
2023/06/17 05:14:11;;;;;;;0.50;0.20;;;;;;;19.05;64.04;100148.78;5032026;28;20893;-50
2023/06/17 05:16:38;;;;;;;0.47;0.30;;;;;;;19.21;62.61;100160.28;5031701;28;20488;-49
2023/06/17 05:19:04;;;;;;;0.50;0.20;;;;;;;19.77;60.13;100159.19;5032074;28;20554;-50
2023/06/17 05:21:31;;;;;;;0.40;0.20;;;;;;;19.23;62.96;100156.53;5031981;28;20898;-50
2023/06/17 05:23:57;;;;;;;0.50;0.20;;;;;;;19.74;60.31;100163.94;5031558;28;20941;-50
2023/06/17 05:26:28;;;;;;;0.40;0.20;;;;;;;19.86;60.04;100168.47;5027416;28;20483;-50
2023/06/17 05:28:54;;;;;;;0.50;0.50;;;;;;;19.71;60.84;100167.69;5032960;28;20495;-49
2023/06/17 05:31:21;;;;;;;0.50;0.20;;;;;;;19.89;60.02;100164.72;5037168;28;20491;-50
2023/06/17 05:33:47;;;;;;;0.50;0.20;;;;;;;20.28;58.78;100171.84;5032434;28;20475;-50
2023/06/17 05:36:14;;;;;;;0.43;0.20;;;;;;;19.86;60.11;100170.28;5038159;28;21000;-49
2023/06/17 05:38:40;;;;;;;0.50;0.20;;;;;;;19.17;61.87;100167.69;5031346;28;20468;-50
2023/06/17 05:41:07;;;;;;;0.60;0.50;;;;;;;19.86;60.04;100167.59;5031628;28;20471;-49
2023/06/17 05:43:33;;;;;;;0.50;0.20;;;;;;;19.87;60.78;100169.31;5031477;28;20467;-49
2023/06/17 05:46:00;;;;;;;0.50;0.20;;;;;;;20.02;60.13;100174.56;5031340;28;20523;-49
2023/06/17 05:48:26;;;;;;;0.50;0.20;;;;;;;20.66;57.23;100170.00;5031742;28;20478;-50
2023/06/17 05:50:53;;;;;;;0.50;0.20;;;;;;;20.49;57.51;100174.88;5031361;28;20952;-49
2023/06/17 05:53:19;;;;;;;0.50;0.20;;;;;;;20.98;56.33;100181.19;5030566;28;20483;-50
2023/06/17 05:55:46;;;;;;;0.50;0.20;;;;;;;21.11;56.02;100182.97;5030937;28;20497;-49
2023/06/17 05:58:12;;;;;;;0.50;0.20;;;;;;;20.63;56.28;100172.06;5032847;28;20565;-50
2023/06/17 06:00:39;;;;;;;0.50;0.20;;;;;;;20.95;56.69;100178.69;5034944;28;20499;-49
2023/06/17 06:03:05;;;;;;;0.43;0.20;;;;;;;20.60;57.46;100175.00;5034995;28;20956;-49
2023/06/17 06:05:32;;;;;;;0.50;0.20;;;;;;;20.83;57.21;100181.41;5034901;28;20951;-49
2023/06/17 06:07:58;;;;;;;0.50;0.20;;;;;;;21.41;55.16;100180.72;5034431;28;20463;-49
2023/06/17 06:10:28;;;;;;;0.50;0.20;;;;;;;21.47;54.69;100182.09;5035430;28;20511;-50
2023/06/17 06:12:54;;;;;;;0.73;0.73;;;;;;;21.38;55.49;100182.75;5034647;28;20491;-50
2023/06/17 06:15:21;;;;;;;0.50;0.20;;;;;;;21.41;56.26;100183.41;5034906;28;20526;-50
2023/06/17 06:17:48;;;;;;;0.50;0.20;;;;;;;21.62;55.47;100175.50;5034909;28;20525;-50
2023/06/17 06:20:14;;;;;;;0.50;0.20;;;;;;;21.79;54.83;100180.50;5034660;28;20478;-49
2023/06/17 06:22:41;;;;;;;0.50;0.20;;;;;;;21.95;54.09;100179.31;5034381;28;20463;-49
2023/06/17 06:25:07;;;;;;;0.50;0.20;;;;;;;22.08;53.27;100180.13;5034400;28;20956;-50
2023/06/17 06:27:34;;;;;;;1.47;0.93;;;;;;;22.36;52.07;100186.94;5034878;28;20471;-50
2023/06/17 06:30:00;;;;;;;0.50;0.20;;;;;;;21.76;54.11;100177.16;5034702;28;20505;-50
2023/06/17 06:32:27;;;;;;;0.50;0.40;;;;;;;22.17;53.22;100185.66;5034625;28;20495;-49
2023/06/17 06:34:53;;;;;;;0.50;0.20;;;;;;;22.24;52.85;100187.91;5034296;28;20475;-49
2023/06/17 06:37:20;;;;;;;0.50;0.20;;;;;;;22.12;53.56;100185.19;5034025;28;20470;-50
2023/06/17 06:39:46;;;;;;;0.50;0.20;;;;;;;22.45;52.34;100178.94;5028711;28;20475;-49
2023/06/17 06:42:13;;;;;;;0.50;0.20;;;;;;;22.73;52.00;100183.00;5034252;28;20881;-50
2023/06/17 06:44:39;;;;;;;2.17;2.07;;;;;;;22.88;51.87;100188.19;5034287;28;20874;-50
2023/06/17 06:47:06;;;;;;;0.50;0.20;;;;;;;23.05;50.91;100190.41;5034428;28;20494;-53
2023/06/17 06:49:33;;;;;;;0.60;0.50;;;;;;;22.89;50.84;100190.81;5034035;28;20475;-51
2023/06/17 06:52:00;;;;;;;0.50;0.20;;;;;;;23.01;49.92;100197.03;5033535;28;20514;-50
2023/06/17 06:54:26;;;;;;;0.50;0.50;;;;;;;22.88;51.12;100191.75;5033871;28;20471;-50
2023/06/17 06:56:53;;;;;;;0.50;0.20;;;;;;;23.10;50.30;100190.88;5034142;28;20483;-50
2023/06/17 06:59:19;;;;;;;0.50;0.20;;;;;;;23.01;50.58;100194.34;5034205;28;20481;-50
2023/06/17 07:01:45;;;;;;;0.50;0.20;;;;;;;22.63;52.23;100194.72;5034079;28;20479;-50
2023/06/17 07:04:12;;;;;;;0.50;0.40;;;;;;;22.84;51.77;100198.44;5034173;28;20929;-49
2023/06/17 07:06:38;;;;;;;0.50;0.20;;;;;;;22.87;50.99;100200.88;5034485;28;20480;-50
2023/06/17 07:09:05;;;;;;;0.50;0.20;;;;;;;22.99;49.67;100204.44;5033128;28;20472;-50
2023/06/17 07:11:31;;;;;;;0.50;0.20;;;;;;;23.15;50.95;100199.47;5033952;28;21031;-50
2023/06/17 07:13:58;;;;;;;0.50;0.20;;;;;;;23.62;49.14;100194.72;5034033;28;20463;-50
2023/06/17 07:16:24;;;;;;;1.80;1.70;;;;;;;23.79;50.60;100205.00;5033931;28;20572;-51
2023/06/17 07:18:51;;;;;;;0.50;0.20;;;;;;;23.96;49.56;100197.25;5033878;28;20983;-51
2023/06/17 07:21:17;;;;;;;0.50;0.20;;;;;;;23.89;48.86;100197.78;5033620;28;20953;-50
2023/06/17 07:23:44;;;;;;;0.50;0.20;;;;;;;23.84;48.51;100193.72;5033995;28;20482;-50
2023/06/17 07:26:10;;;;;;;0.50;0.30;;;;;;;24.46;47.04;100191.03;5033548;28;20488;-50
2023/06/17 07:28:36;;;;;;;0.50;0.20;;;;;;;24.11;47.36;100198.66;5029620;28;20525;-50
2023/06/17 07:31:03;;;;;;;1.53;1.43;;;;;;;23.96;46.39;100187.25;5033218;28;20558;-50
2023/06/17 07:33:30;;;;;;;0.50;0.40;;;;;;;24.52;46.25;100185.06;5033398;28;20518;-50
2023/06/17 07:35:57;;;;;;;0.50;0.30;;;;;;;23.83;47.76;100192.88;5033219;28;20613;-49
2023/06/17 07:38:24;;;;;;;0.50;0.20;;;;;;;24.02;48.38;100184.03;5033740;28;20471;-50
2023/06/17 07:40:51;;;;;;;0.50;0.20;;;;;;;24.61;46.68;100188.81;5033551;28;20469;-51
2023/06/17 07:43:17;;;;;;;0.50;0.40;;;;;;;25.34;44.88;100190.34;5033078;28;20456;-50
2023/06/17 07:45:43;;;;;;;0.50;0.20;;;;;;;24.86;45.39;100183.91;5033124;28;20985;-51
2023/06/17 07:48:10;;;;;;;0.50;0.20;;;;;;;24.98;44.55;100183.69;5033048;28;20467;-50
2023/06/17 07:50:36;;;;;;;0.50;0.30;;;;;;;25.45;44.29;100188.53;5033007;28;21038;-51
2023/06/17 07:53:03;;;;;;;0.50;0.20;;;;;;;25.12;44.94;100189.75;5032827;28;20499;-50
2023/06/17 07:55:30;;;;;;;0.50;0.20;;;;;;;24.99;44.40;100187.25;5033072;28;20526;-51
2023/06/17 07:57:56;;;;;;;0.50;0.20;;;;;;;25.60;42.47;100179.78;5032882;28;20956;-49
2023/06/17 08:00:23;;;;;;;0.50;0.20;;;;;;;25.49;42.75;100181.78;5033067;28;20973;-51
2023/06/17 08:02:49;;;;;;;0.50;0.20;;;;;;;25.55;42.24;100181.22;5033031;28;20550;-50
2023/06/17 08:05:16;;;;;;;0.50;0.23;;;;;;;26.21;41.84;100174.03;5032739;28;20498;-50
2023/06/17 08:07:42;;;;;;;0.50;0.20;;;;;;;25.94;41.40;100177.53;5032695;28;20467;-51
2023/06/17 08:10:09;;;;;;;0.50;0.20;;;;;;;25.29;42.28;100170.88;5033209;28;20467;-50
2023/06/17 08:12:36;;;;;;;0.50;0.20;;;;;;;25.39;42.31;100179.06;5032843;28;20502;-51
2023/06/17 08:15:03;;;;;;;0.50;0.20;;;;;;;26.10;41.24;100171.47;5032315;28;20529;-50
2023/06/17 08:17:29;;;;;;;0.50;0.20;;;;;;;26.22;40.58;100167.59;5033025;28;20495;-51
2023/06/17 08:19:56;;;;;;;0.93;0.60;;;;;;;26.09;41.37;100172.50;5029033;28;20968;-50
2023/06/17 08:22:23;;;;;;;0.50;0.30;;;;;;;26.46;40.45;100163.53;5032764;28;20517;-51
2023/06/17 08:24:49;;;;;;;0.50;0.20;;;;;;;26.37;40.69;100169.88;5032560;28;20550;-50
2023/06/17 08:27:16;;;;;;;0.50;0.30;;;;;;;26.38;39.88;100156.09;5031697;28;20483;-51
2023/06/17 08:29:42;;;;;;;0.50;0.20;;;;;;;26.94;39.72;100162.44;5027191;28;20471;-51
2023/06/17 08:32:08;;;;;;;0.50;0.20;;;;;;;27.06;40.11;100158.53;5032254;28;20538;-50
2023/06/17 08:34:36;;;;;;;0.50;0.27;;;;;;;27.01;40.02;100155.41;5026204;28;21014;-51
2023/06/17 08:37:04;;;;;;;0.50;0.30;;;;;;;27.22;38.80;100142.34;5032244;28;20483;-50
2023/06/17 08:39:31;;;;;;;2.20;1.17;;;;;;;27.12;38.79;100138.81;5032450;28;20478;-50
2023/06/17 08:41:58;;;;;;;0.53;0.40;;;;;;;27.55;38.39;100149.00;5032051;28;20468;-50
2023/06/17 08:44:31;;;;;;;0.50;0.20;;;;;;;27.62;38.13;100146.50;5032646;28;20463;-51
2023/06/17 08:47:00;;;;;;;0.50;0.23;;;;;;;27.71;37.38;100138.25;5032888;28;20495;-50
2023/06/17 08:49:27;;;;;;;0.50;0.30;;;;;;;27.76;36.84;100136.91;5033059;28;20475;-50
2023/06/17 08:51:55;;;;;;;0.50;0.20;;;;;;;27.90;36.07;100131.72;5033259;28;20463;-51
2023/06/17 08:54:24;;;;;;;0.50;0.30;;;;;;;28.18;36.56;100134.31;5032730;28;20499;-51
2023/06/17 08:56:50;;;;;;;0.50;0.27;;;;;;;28.43;36.37;100129.88;5032929;28;20487;-51
2023/06/17 08:59:17;;;;;;;0.50;0.40;;;;;;;28.13;34.92;100139.41;5033148;28;20464;-50
2023/06/17 09:01:43;;;;;;;0.50;0.30;;;;;;;28.18;32.86;100135.16;5032191;28;20498;-51
2023/06/17 09:04:12;;;;;;;0.50;0.30;;;;;;;28.03;32.92;100132.16;5032260;28;20506;-51
2023/06/17 09:06:38;;;;;;;0.50;0.30;;;;;;;27.62;32.70;100128.22;5032156;28;20495;-50
2023/06/17 09:09:05;;;;;;;0.50;0.30;;;;;;;27.76;31.81;100123.25;5032005;28;20506;-51
2023/06/17 09:11:31;;;;;;;0.50;0.30;;;;;;;28.30;32.93;100127.59;5014459;28;20464;-51
2023/06/17 09:14:00;;;;;;;0.50;0.20;;;;;;;27.74;33.04;100129.72;5032201;28;20866;-51
2023/06/17 09:16:33;;;;;;;0.50;0.30;;;;;;;28.34;32.18;100120.78;5032025;28;20989;-51
2023/06/17 09:19:02;;;;;;;0.50;0.30;;;;;;;28.66;31.25;100116.50;5014997;28;20481;-51
2023/06/17 09:21:29;;;;;;;0.50;0.30;;;;;;;28.18;31.05;100117.91;5032795;28;20892;-51
2023/06/17 09:24:00;;;;;;;0.50;0.20;;;;;;;28.11;29.80;100119.59;5032281;28;20463;-50
2023/06/17 09:26:34;;;;;;;0.50;0.30;;;;;;;28.18;30.50;100116.03;5025237;28;20514;-51
2023/06/17 09:29:06;;;;;;;0.50;0.30;;;;;;;28.06;30.31;100111.84;5032035;28;20463;-51
2023/06/17 09:31:51;;;;;;;0.50;0.30;;;;;;;28.02;30.61;100111.31;5014578;28;21026;-51
2023/06/17 09:34:19;;;;;;;0.50;0.20;;;;;;;27.66;30.33;100102.34;5035446;28;20530;-51
2023/06/17 09:36:46;;;;;;;0.50;0.20;;;;;;;28.26;31.08;100104.31;5036028;28;20487;-51
2023/06/17 09:39:13;;;;;;;0.50;0.23;;;;;;;28.53;31.58;100095.06;5035953;28;20992;-50
2023/06/17 09:41:41;;;;;;;0.50;0.30;;;;;;;28.50;31.27;100090.75;5036336;28;20805;-51
2023/06/17 09:44:08;;;;;;;0.50;0.20;;;;;;;28.39;31.18;100091.09;5036088;28;20815;-51
2023/06/17 09:46:36;;;;;;;0.50;0.30;;;;;;;28.30;30.72;100092.91;5035968;28;20526;-51
2023/06/17 09:49:09;;;;;;;0.50;0.30;;;;;;;29.10;31.56;100087.94;5036383;28;20558;-51
2023/06/17 09:51:37;;;;;;;0.50;0.30;;;;;;;29.18;30.44;100087.94;5036846;28;20498;-50
2023/06/17 09:54:06;;;;;;;0.50;0.30;;;;;;;28.59;30.78;100078.84;5036041;28;20502;-51
2023/06/17 09:56:33;;;;;;;0.50;0.30;;;;;;;28.46;31.44;100081.19;5017877;28;20552;-51
2023/06/17 09:59:03;;;;;;;0.50;0.30;;;;;;;28.36;31.01;100083.19;5035413;28;20455;-50
2023/06/17 10:01:30;;;;;;;0.50;0.30;;;;;;;28.19;30.68;100076.75;5035368;28;20464;-50
2023/06/17 10:04:00;;;;;;;0.50;0.30;;;;;;;28.87;29.91;100076.75;5035969;28;20475;-50
2023/06/17 10:06:34;;;;;;;0.50;0.30;;;;;;;28.77;30.30;100066.94;5035572;28;20996;-51
2023/06/17 10:09:04;;;;;;;0.50;0.30;;;;;;;28.45;30.47;100074.00;5035712;28;21090;-51
2023/06/17 10:11:31;;;;;;;0.50;0.30;;;;;;;28.52;31.24;100072.34;5035163;28;20471;-50
2023/06/17 10:14:11;;;;;;;0.50;0.30;;;;;;;28.76;31.06;100073.44;5017398;28;20578;-50
2023/06/17 10:16:41;;;;;;;0.50;0.30;;;;;;;29.03;31.30;100073.19;5035727;28;20483;-51
2023/06/17 10:19:13;;;;;;;0.50;0.30;;;;;;;29.26;31.09;100069.81;5035634;28;20466;-50
2023/06/17 10:21:44;;;;;;;0.50;0.30;;;;;;;28.89;31.10;100071.09;5027898;28;20467;-51
2023/06/17 10:24:12;;;;;;;0.50;0.30;;;;;;;29.31;30.72;100070.16;5035142;28;20948;-49
2023/06/17 10:26:38;;;;;;;0.50;0.30;;;;;;;29.45;30.64;100080.44;5029900;28;20855;-51
2023/06/17 10:29:07;;;;;;;0.50;0.30;;;;;;;29.67;30.53;100078.94;5035201;28;20468;-51
2023/06/17 10:31:38;;;;;;;0.50;0.30;;;;;;;29.48;30.91;100074.66;5035519;28;20467;-51
2023/06/17 10:34:08;;;;;;;0.50;0.30;;;;;;;30.17;29.81;100065.00;5035186;28;20938;-50
2023/06/17 10:36:38;;;;;;;0.50;0.30;;;;;;;30.27;29.48;100065.66;5035367;28;20902;-51
2023/06/17 10:39:06;;;;;;;0.50;0.20;;;;;;;30.03;29.63;100068.44;5035601;28;20834;-51
2023/06/17 10:41:38;;;;;;;0.50;0.30;;;;;;;29.62;29.94;100078.59;5035517;28;20890;-51
2023/06/17 10:44:19;;;;;;;0.50;0.30;;;;;;;29.63;30.20;100077.56;5033318;28;20434;-50
2023/06/17 10:46:50;;;;;;;0.50;0.30;;;;;;;29.51;29.36;100073.47;5034664;28;20939;-51
2023/06/17 10:49:17;;;;;;;0.50;0.30;;;;;;;28.68;30.88;100065.22;5034519;28;20843;-51
2023/06/17 10:51:51;;;;;;;0.50;0.30;;;;;;;29.58;29.57;100064.38;5034764;28;20534;-50
2023/06/17 10:54:30;;;;;;;0.50;0.23;;;;;;;29.47;30.45;100068.34;5034668;28;20491;-51
2023/06/17 10:56:59;;;;;;;0.50;0.30;;;;;;;29.43;30.17;100057.84;5034356;28;20517;-50
2023/06/17 10:59:30;;;;;;;0.50;0.30;;;;;;;29.38;30.56;100054.75;5034309;28;20464;-50
2023/06/17 11:02:06;;;;;;;0.50;0.30;;;;;;;28.95;30.60;100053.19;5034081;28;20525;-50
2023/06/17 11:04:35;;;;;;;0.50;0.30;;;;;;;28.96;30.83;100058.47;5034208;28;20804;-50
2023/06/17 11:07:03;;;;;;;0.50;0.30;;;;;;;28.80;31.09;100052.94;5034196;28;21103;-51
2023/06/17 11:09:30;;;;;;;0.50;0.30;;;;;;;29.39;30.65;100051.84;5034104;28;20835;-51
2023/06/17 11:11:57;;;;;;;0.50;0.30;;;;;;;28.38;30.06;100048.34;5034194;28;20463;-50
2023/06/17 11:14:27;;;;;;;0.50;0.30;;;;;;;29.30;29.08;100043.78;5033873;28;20534;-50
2023/06/17 11:16:53;;;;;;;0.50;0.30;;;;;;;29.13;28.47;100041.03;5034134;28;20574;-50
2023/06/17 11:19:20;;;;;;;0.50;0.30;;;;;;;29.31;28.45;100040.03;5033735;28;20475;-50
2023/06/17 11:21:51;;;;;;;0.50;0.30;;;;;;;29.64;28.20;100050.00;5034005;28;20491;-50
2023/06/17 11:24:17;;;;;;;0.50;0.30;;;;;;;30.06;28.53;100041.56;5033925;28;20837;-50
2023/06/17 11:26:44;;;;;;;0.50;0.30;;;;;;;29.72;29.10;100036.28;5016115;28;20526;-50